sensor_id;sensor_type;location;lat;lon;timestamp;pressure;altitude;pressure_sealevel;temperature;humidity
43155;BME280;34212;51.018;13.586;2022-11-27T00:01:57;99210.72;;;5.60;92.25
43155;BME280;34212;51.018;13.586;2022-11-27T00:06:59;99213.81;;;5.53;91.65
43155;BME280;34212;51.018;13.586;2022-11-27T00:12:00;99208.75;;;5.50;92.08
43155;BME280;34212;51.018;13.586;2022-11-27T00:17:01;99195.88;;;5.46;92.08
43155;BME280;34212;51.018;13.586;2022-11-27T00:22:03;99196.19;;;5.41;92.08
43155;BME280;34212;51.018;13.586;2022-11-27T00:27:04;99192.38;;;5.45;91.80
43155;BME280;34212;51.018;13.586;2022-11-27T00:32:06;99189.16;;;5.53;92.27
43155;BME280;34212;51.018;13.586;2022-11-27T00:37:08;99182.56;;;5.59;91.72
43155;BME280;34212;51.018;13.586;2022-11-27T00:42:09;99182.44;;;5.60;91.62
43155;BME280;34212;51.018;13.586;2022-11-27T00:47:11;99187.03;;;5.58;91.04
43155;BME280;34212;51.018;13.586;2022-11-27T00:52:12;99183.03;;;5.52;90.96
43155;BME280;34212;51.018;13.586;2022-11-27T00:57:14;99176.16;;;5.50;91.16
43155;BME280;34212;51.018;13.586;2022-11-27T01:02:15;99177.72;;;5.52;91.13
43155;BME280;34212;51.018;13.586;2022-11-27T01:07:16;99181.56;;;5.48;90.47
43155;BME280;34212;51.018;13.586;2022-11-27T01:12:18;99174.78;;;5.33;90.69
43155;BME280;34212;51.018;13.586;2022-11-27T01:17:19;99167.06;;;5.30;91.63
43155;BME280;34212;51.018;13.586;2022-11-27T01:22:21;99158.44;;;5.39;91.57
43155;BME280;34212;51.018;13.586;2022-11-27T01:27:22;99143.06;;;5.44;91.12
43155;BME280;34212;51.018;13.586;2022-11-27T01:32:24;99148.34;;;5.44;90.90
43155;BME280;34212;51.018;13.586;2022-11-27T01:37:26;99132.09;;;5.38;90.59
43155;BME280;34212;51.018;13.586;2022-11-27T01:42:27;99135.09;;;5.33;90.02
43155;BME280;34212;51.018;13.586;2022-11-27T01:47:41;99118.19;;;5.23;89.70
43155;BME280;34212;51.018;13.586;2022-11-27T01:52:48;99104.94;;;5.12;88.76
43155;BME280;34212;51.018;13.586;2022-11-27T01:58:00;99102.84;;;5.04;89.11
43155;BME280;34212;51.018;13.586;2022-11-27T02:03:02;99091.16;;;4.95;89.50
43155;BME280;34212;51.018;13.586;2022-11-27T02:08:09;99084.41;;;4.91;88.93
43155;BME280;34212;51.018;13.586;2022-11-27T02:13:19;99086.19;;;4.67;88.42
43155;BME280;34212;51.018;13.586;2022-11-27T02:24:43;99071.97;;;4.56;88.17
43155;BME280;34212;51.018;13.586;2022-11-27T02:29:48;99072.53;;;4.36;87.63
43155;BME280;34212;51.018;13.586;2022-11-27T02:40:11;99069.25;;;3.96;88.60
43155;BME280;34212;51.018;13.586;2022-11-27T02:45:17;99072.63;;;3.85;89.01
43155;BME280;34212;51.018;13.586;2022-11-27T02:50:24;99071.59;;;3.87;89.10
43155;BME280;34212;51.018;13.586;2022-11-27T02:55:29;99076.75;;;3.89;88.32
43155;BME280;34212;51.018;13.586;2022-11-27T03:00:33;99084.38;;;3.81;88.87
43155;BME280;34212;51.018;13.586;2022-11-27T03:05:37;99082.03;;;3.76;89.68
43155;BME280;34212;51.018;13.586;2022-11-27T03:10:49;99083.53;;;3.80;88.94
43155;BME280;34212;51.018;13.586;2022-11-27T03:21:25;99084.16;;;3.84;88.46
43155;BME280;34212;51.018;13.586;2022-11-27T03:26:29;99074.31;;;3.86;88.38
43155;BME280;34212;51.018;13.586;2022-11-27T03:31:31;99074.44;;;3.97;88.42
43155;BME280;34212;51.018;13.586;2022-11-27T03:36:33;99075.59;;;3.93;88.09
43155;BME280;34212;51.018;13.586;2022-11-27T03:41:57;99062.19;;;3.96;88.16
43155;BME280;34212;51.018;13.586;2022-11-27T03:58:05;99054.34;;;4.07;88.47
43155;BME280;34212;51.018;13.586;2022-11-27T04:03:10;99056.06;;;4.08;88.18
43155;BME280;34212;51.018;13.586;2022-11-27T04:08:11;99050.13;;;4.05;88.23
43155;BME280;34212;51.018;13.586;2022-11-27T04:13:13;99054.34;;;4.07;88.87
43155;BME280;34212;51.018;13.586;2022-11-27T04:18:15;99060.91;;;4.14;88.72
43155;BME280;34212;51.018;13.586;2022-11-27T04:23:16;99058.88;;;4.18;88.74
43155;BME280;34212;51.018;13.586;2022-11-27T04:28:17;99061.81;;;4.13;88.41
43155;BME280;34212;51.018;13.586;2022-11-27T04:33:19;99070.81;;;4.11;88.63
43155;BME280;34212;51.018;13.586;2022-11-27T04:38:22;99061.34;;;4.08;88.63
43155;BME280;34212;51.018;13.586;2022-11-27T04:43:23;99060.47;;;4.08;88.36
43155;BME280;34212;51.018;13.586;2022-11-27T04:48:25;99057.31;;;4.03;88.81
43155;BME280;34212;51.018;13.586;2022-11-27T04:53:26;99051.19;;;4.02;88.05
43155;BME280;34212;51.018;13.586;2022-11-27T04:58:28;99054.78;;;4.01;88.97
43155;BME280;34212;51.018;13.586;2022-11-27T05:03:29;99049.63;;;4.00;89.08
43155;BME280;34212;51.018;13.586;2022-11-27T05:08:31;99049.72;;;3.98;88.10
43155;BME280;34212;51.018;13.586;2022-11-27T05:13:33;99057.75;;;3.97;88.63
43155;BME280;34212;51.018;13.586;2022-11-27T05:18:35;99052.25;;;4.00;88.46
43155;BME280;34212;51.018;13.586;2022-11-27T05:23:36;99061.75;;;4.02;88.26
43155;BME280;34212;51.018;13.586;2022-11-27T05:28:38;99061.63;;;4.04;87.85
43155;BME280;34212;51.018;13.586;2022-11-27T05:33:39;99065.34;;;4.01;88.22
43155;BME280;34212;51.018;13.586;2022-11-27T05:38:40;99063.66;;;4.00;87.96
43155;BME280;34212;51.018;13.586;2022-11-27T05:43:42;99062.41;;;3.93;87.71
43155;BME280;34212;51.018;13.586;2022-11-27T05:48:43;99075.91;;;3.88;87.98
43155;BME280;34212;51.018;13.586;2022-11-27T05:53:45;99069.03;;;3.86;87.90
43155;BME280;34212;51.018;13.586;2022-11-27T05:58:47;99055.63;;;3.89;88.19
43155;BME280;34212;51.018;13.586;2022-11-27T06:03:48;99053.53;;;3.81;87.74
43155;BME280;34212;51.018;13.586;2022-11-27T06:08:50;99051.63;;;3.70;87.96
43155;BME280;34212;51.018;13.586;2022-11-27T06:13:51;99042.59;;;3.62;87.78
43155;BME280;34212;51.018;13.586;2022-11-27T06:18:54;99049.13;;;3.56;88.25
43155;BME280;34212;51.018;13.586;2022-11-27T06:23:56;99034.66;;;3.49;87.87
43155;BME280;34212;51.018;13.586;2022-11-27T06:28:59;99040.16;;;3.46;87.97
43155;BME280;34212;51.018;13.586;2022-11-27T06:34:02;99034.44;;;3.39;88.41
43155;BME280;34212;51.018;13.586;2022-11-27T06:39:05;99041.50;;;3.39;88.13
43155;BME280;34212;51.018;13.586;2022-11-27T06:44:08;99032.34;;;3.44;88.70
43155;BME280;34212;51.018;13.586;2022-11-27T06:49:11;99008.28;;;3.49;88.35
43155;BME280;34212;51.018;13.586;2022-11-27T06:54:13;99012.50;;;3.52;88.46
43155;BME280;34212;51.018;13.586;2022-11-27T06:59:14;99011.22;;;3.57;88.89
43155;BME280;34212;51.018;13.586;2022-11-27T07:04:16;99027.59;;;3.62;89.50
43155;BME280;34212;51.018;13.586;2022-11-27T07:09:17;99038.97;;;3.63;89.14
43155;BME280;34212;51.018;13.586;2022-11-27T07:14:19;99025.78;;;3.63;89.08
43155;BME280;34212;51.018;13.586;2022-11-27T07:19:20;99028.22;;;3.66;89.18
43155;BME280;34212;51.018;13.586;2022-11-27T07:24:22;99024.41;;;3.70;89.74
43155;BME280;34212;51.018;13.586;2022-11-27T07:29:23;99029.38;;;3.75;90.37
43155;BME280;34212;51.018;13.586;2022-11-27T07:34:24;99024.81;;;3.77;90.25
43155;BME280;34212;51.018;13.586;2022-11-27T07:39:26;99019.13;;;3.83;89.87
43155;BME280;34212;51.018;13.586;2022-11-27T07:44:47;99011.50;;;3.91;90.14
43155;BME280;34212;51.018;13.586;2022-11-27T07:49:49;98991.75;;;3.97;89.76
43155;BME280;34212;51.018;13.586;2022-11-27T07:54:50;98989.31;;;4.06;90.72
43155;BME280;34212;51.018;13.586;2022-11-27T07:59:52;98985.34;;;4.25;90.23
43155;BME280;34212;51.018;13.586;2022-11-27T08:04:54;98979.50;;;4.32;90.74
43155;BME280;34212;51.018;13.586;2022-11-27T08:09:56;98967.19;;;4.44;91.35
43155;BME280;34212;51.018;13.586;2022-11-27T08:15:00;98962.91;;;4.54;90.98
43155;BME280;34212;51.018;13.586;2022-11-27T08:20:05;98961.38;;;4.63;90.97
43155;BME280;34212;51.018;13.586;2022-11-27T08:25:07;98958.19;;;4.71;91.46
43155;BME280;34212;51.018;13.586;2022-11-27T08:30:09;98965.66;;;4.77;90.97
43155;BME280;34212;51.018;13.586;2022-11-27T08:35:11;98959.91;;;4.83;90.64
43155;BME280;34212;51.018;13.586;2022-11-27T08:40:12;98967.13;;;4.92;91.33
43155;BME280;34212;51.018;13.586;2022-11-27T08:45:14;98968.22;;;5.01;91.88
43155;BME280;34212;51.018;13.586;2022-11-27T08:50:15;98967.66;;;5.08;91.85
43155;BME280;34212;51.018;13.586;2022-11-27T08:55:17;98974.16;;;5.16;91.99
43155;BME280;34212;51.018;13.586;2022-11-27T09:00:19;98960.75;;;5.30;92.17
43155;BME280;34212;51.018;13.586;2022-11-27T09:05:28;98965.78;;;5.44;91.81
43155;BME280;34212;51.018;13.586;2022-11-27T09:10:30;98961.22;;;5.57;92.06
43155;BME280;34212;51.018;13.586;2022-11-27T09:15:31;98949.56;;;5.71;92.43
43155;BME280;34212;51.018;13.586;2022-11-27T09:20:33;98947.75;;;5.83;92.16
43155;BME280;34212;51.018;13.586;2022-11-27T09:25:37;98944.03;;;5.97;92.24
43155;BME280;34212;51.018;13.586;2022-11-27T09:30:39;98933.78;;;6.04;92.48
43155;BME280;34212;51.018;13.586;2022-11-27T09:35:40;98925.22;;;6.11;92.35
43155;BME280;34212;51.018;13.586;2022-11-27T09:40:50;98926.28;;;6.20;92.74
43155;BME280;34212;51.018;13.586;2022-11-27T09:45:55;98916.16;;;6.25;92.74
43155;BME280;34212;51.018;13.586;2022-11-27T09:50:59;98896.13;;;6.32;93.03
43155;BME280;34212;51.018;13.586;2022-11-27T09:56:04;98895.50;;;6.40;92.79
43155;BME280;34212;51.018;13.586;2022-11-27T10:01:14;98889.28;;;6.51;93.09
43155;BME280;34212;51.018;13.586;2022-11-27T10:11:30;98878.19;;;6.78;93.36
43155;BME280;34212;51.018;13.586;2022-11-27T10:16:42;98875.34;;;6.90;93.23
43155;BME280;34212;51.018;13.586;2022-11-27T10:21:52;98868.28;;;7.01;93.27
43155;BME280;34212;51.018;13.586;2022-11-27T10:26:57;98863.44;;;7.06;93.42
43155;BME280;34212;51.018;13.586;2022-11-27T10:32:18;98861.91;;;7.13;93.45
43155;BME280;34212;51.018;13.586;2022-11-27T10:37:58;98849.81;;;7.20;93.50
43155;BME280;34212;51.018;13.586;2022-11-27T10:43:17;98850.41;;;7.24;93.57
43155;BME280;34212;51.018;13.586;2022-11-27T10:48:19;98841.44;;;7.25;93.53
43155;BME280;34212;51.018;13.586;2022-11-27T10:53:35;98838.41;;;7.29;93.42
43155;BME280;34212;51.018;13.586;2022-11-27T10:58:44;98827.69;;;7.40;93.44
43155;BME280;34212;51.018;13.586;2022-11-27T11:03:47;98835.41;;;7.53;94.34
43155;BME280;34212;51.018;13.586;2022-11-27T11:09:22;98833.47;;;7.65;93.54
43155;BME280;34212;51.018;13.586;2022-11-27T11:14:25;98836.16;;;7.75;93.70
43155;BME280;34212;51.018;13.586;2022-11-27T11:19:34;98828.34;;;7.83;93.02
43155;BME280;34212;51.018;13.586;2022-11-27T11:24:44;98838.28;;;7.91;93.06
43155;BME280;34212;51.018;13.586;2022-11-27T11:29:53;98832.41;;;7.97;93.57
43155;BME280;34212;51.018;13.586;2022-11-27T11:34:57;98842.38;;;8.04;93.59
43155;BME280;34212;51.018;13.586;2022-11-27T11:40:05;98835.94;;;8.17;93.64
43155;BME280;34212;51.018;13.586;2022-11-27T11:50:19;98825.47;;;8.54;94.61
43155;BME280;34212;51.018;13.586;2022-11-27T11:55:32;98821.25;;;8.61;93.85
43155;BME280;34212;51.018;13.586;2022-11-27T12:00:47;98810.44;;;8.63;93.44
43155;BME280;34212;51.018;13.586;2022-11-27T12:06:19;98807.81;;;8.72;93.73
43155;BME280;34212;51.018;13.586;2022-11-27T12:11:38;98808.88;;;8.79;93.64
43155;BME280;34212;51.018;13.586;2022-11-27T12:43:23;98770.81;;;8.79;93.39
43155;BME280;34212;51.018;13.586;2022-11-27T12:48:39;98750.13;;;8.73;92.68
43155;BME280;34212;51.018;13.586;2022-11-27T12:53:47;98757.56;;;8.69;92.62
43155;BME280;34212;51.018;13.586;2022-11-27T12:58:56;98746.22;;;8.67;92.70
43155;BME280;34212;51.018;13.586;2022-11-27T13:04:25;98729.44;;;8.67;92.13
43155;BME280;34212;51.018;13.586;2022-11-27T13:09:41;98718.78;;;8.67;92.46
43155;BME280;34212;51.018;13.586;2022-11-27T13:14:50;98708.41;;;8.73;92.32
43155;BME280;34212;51.018;13.586;2022-11-27T13:19:55;98709.38;;;9.28;92.28
43155;BME280;34212;51.018;13.586;2022-11-27T13:25:00;98691.41;;;10.19;91.00
43155;BME280;34212;51.018;13.586;2022-11-27T13:30:04;98683.75;;;10.42;87.82
43155;BME280;34212;51.018;13.586;2022-11-27T13:35:19;98671.44;;;9.97;88.62
43155;BME280;34212;51.018;13.586;2022-11-27T13:40:29;98669.94;;;9.41;88.71
43155;BME280;34212;51.018;13.586;2022-11-27T13:45:35;98673.84;;;9.01;90.35
43155;BME280;34212;51.018;13.586;2022-11-27T13:50:44;98674.53;;;8.75;90.78
43155;BME280;34212;51.018;13.586;2022-11-27T13:55:54;98661.28;;;8.56;90.22
43155;BME280;34212;51.018;13.586;2022-11-27T14:00:57;98664.44;;;8.42;90.76
43155;BME280;34212;51.018;13.586;2022-11-27T14:05:59;98662.91;;;8.29;90.64
43155;BME280;34212;51.018;13.586;2022-11-27T14:16:28;98654.28;;;8.08;89.95
43155;BME280;34212;51.018;13.586;2022-11-27T14:21:40;98663.13;;;7.99;90.14
43155;BME280;34212;51.018;13.586;2022-11-27T14:26:42;98660.59;;;7.87;89.69
43155;BME280;34212;51.018;13.586;2022-11-27T14:31:44;98649.03;;;7.79;89.76
43155;BME280;34212;51.018;13.586;2022-11-27T14:36:50;98654.75;;;7.74;89.91
43155;BME280;34212;51.018;13.586;2022-11-27T14:42:00;98647.34;;;7.68;89.57
43155;BME280;34212;51.018;13.586;2022-11-27T14:47:04;98635.91;;;7.58;89.84
43155;BME280;34212;51.018;13.586;2022-11-27T14:52:12;98631.72;;;7.46;89.47
43155;BME280;34212;51.018;13.586;2022-11-27T14:57:33;98633.56;;;7.35;89.19
43155;BME280;34212;51.018;13.586;2022-11-27T15:02:35;98637.88;;;7.27;88.99
43155;BME280;34212;51.018;13.586;2022-11-27T15:07:37;98626.53;;;7.15;88.80
43155;BME280;34212;51.018;13.586;2022-11-27T15:12:48;98619.69;;;7.03;88.88
43155;BME280;34212;51.018;13.586;2022-11-27T15:18:13;98618.13;;;6.90;88.19
43155;BME280;34212;51.018;13.586;2022-11-27T15:23:25;98609.31;;;6.80;88.79
43155;BME280;34212;51.018;13.586;2022-11-27T15:33:33;98602.44;;;6.58;88.25
43155;BME280;34212;51.018;13.586;2022-11-27T15:38:34;98600.44;;;6.51;88.44
43155;BME280;34212;51.018;13.586;2022-11-27T15:43:35;98593.03;;;6.44;88.12
43155;BME280;34212;51.018;13.586;2022-11-27T15:48:37;98575.72;;;6.40;88.28
43155;BME280;34212;51.018;13.586;2022-11-27T15:53:39;98567.59;;;6.32;88.31
43155;BME280;34212;51.018;13.586;2022-11-27T15:58:42;98565.50;;;6.26;88.07
43155;BME280;34212;51.018;13.586;2022-11-27T16:03:43;98556.16;;;6.22;88.62
43155;BME280;34212;51.018;13.586;2022-11-27T16:08:45;98551.94;;;6.19;88.43
43155;BME280;34212;51.018;13.586;2022-11-27T16:13:46;98544.41;;;6.15;87.96
43155;BME280;34212;51.018;13.586;2022-11-27T16:18:47;98542.16;;;6.10;87.96
43155;BME280;34212;51.018;13.586;2022-11-27T16:23:49;98550.78;;;6.03;88.28
43155;BME280;34212;51.018;13.586;2022-11-27T16:28:50;98547.94;;;5.94;87.62
43155;BME280;34212;51.018;13.586;2022-11-27T16:33:52;98559.00;;;5.78;87.33
43155;BME280;34212;51.018;13.586;2022-11-27T16:38:57;98544.56;;;5.62;87.20
43155;BME280;34212;51.018;13.586;2022-11-27T16:43:58;98555.59;;;5.46;87.22
43155;BME280;34212;51.018;13.586;2022-11-27T16:49:00;98552.28;;;5.32;87.38
43155;BME280;34212;51.018;13.586;2022-11-27T16:54:04;98539.47;;;5.28;87.78
43155;BME280;34212;51.018;13.586;2022-11-27T16:59:09;98536.09;;;5.26;87.77
43155;BME280;34212;51.018;13.586;2022-11-27T17:04:17;98531.06;;;5.23;87.65
43155;BME280;34212;51.018;13.586;2022-11-27T17:09:19;98523.28;;;5.21;87.63
43155;BME280;34212;51.018;13.586;2022-11-27T17:14:22;98514.88;;;5.16;87.84
43155;BME280;34212;51.018;13.586;2022-11-27T17:19:27;98498.44;;;5.13;88.54
43155;BME280;34212;51.018;13.586;2022-11-27T17:24:30;98493.88;;;5.15;88.39
43155;BME280;34212;51.018;13.586;2022-11-27T17:29:36;98495.44;;;5.17;88.11
43155;BME280;34212;51.018;13.586;2022-11-27T17:34:38;98492.63;;;5.19;88.48
43155;BME280;34212;51.018;13.586;2022-11-27T17:39:40;98492.13;;;5.25;88.54
43155;BME280;34212;51.018;13.586;2022-11-27T17:44:43;98475.47;;;5.34;89.16
43155;BME280;34212;51.018;13.586;2022-11-27T17:49:45;98459.09;;;5.40;88.72
43155;BME280;34212;51.018;13.586;2022-11-27T17:54:47;98457.72;;;5.46;89.27
43155;BME280;34212;51.018;13.586;2022-11-27T17:59:49;98443.97;;;5.52;89.69
43155;BME280;34212;51.018;13.586;2022-11-27T18:04:51;98444.13;;;5.60;89.42
43155;BME280;34212;51.018;13.586;2022-11-27T18:09:58;98442.03;;;5.64;89.69
43155;BME280;34212;51.018;13.586;2022-11-27T18:15:14;98431.19;;;5.67;89.53
43155;BME280;34212;51.018;13.586;2022-11-27T18:21:11;98413.22;;;5.61;89.28
43155;BME280;34212;51.018;13.586;2022-11-27T18:27:14;98403.72;;;5.48;88.46
43155;BME280;34212;51.018;13.586;2022-11-27T18:32:36;98394.88;;;5.38;88.38
43155;BME280;34212;51.018;13.586;2022-11-27T18:37:38;98393.59;;;5.32;88.47
43155;BME280;34212;51.018;13.586;2022-11-27T18:42:39;98387.06;;;5.27;88.67
43155;BME280;34212;51.018;13.586;2022-11-27T18:47:41;98381.19;;;5.23;88.65
43155;BME280;34212;51.018;13.586;2022-11-27T18:52:42;98380.84;;;5.17;88.96
43155;BME280;34212;51.018;13.586;2022-11-27T18:57:44;98374.31;;;5.11;88.70
43155;BME280;34212;51.018;13.586;2022-11-27T19:02:48;98384.56;;;5.04;88.28
43155;BME280;34212;51.018;13.586;2022-11-27T19:07:52;98389.69;;;4.96;88.47
43155;BME280;34212;51.018;13.586;2022-11-27T19:12:57;98396.47;;;4.89;88.13
43155;BME280;34212;51.018;13.586;2022-11-27T19:17:59;98383.88;;;4.81;88.45
43155;BME280;34212;51.018;13.586;2022-11-27T19:23:02;98380.78;;;4.76;88.59
43155;BME280;34212;51.018;13.586;2022-11-27T19:28:35;98381.63;;;4.77;88.87
43155;BME280;34212;51.018;13.586;2022-11-27T19:34:13;98384.28;;;4.77;88.38
43155;BME280;34212;51.018;13.586;2022-11-27T19:39:18;98377.81;;;4.70;87.96
43155;BME280;34212;51.018;13.586;2022-11-27T19:44:26;98368.94;;;4.71;88.39
43155;BME280;34212;51.018;13.586;2022-11-27T19:49:34;98368.69;;;4.74;88.39
43155;BME280;34212;51.018;13.586;2022-11-27T19:54:35;98363.66;;;4.71;88.17
43155;BME280;34212;51.018;13.586;2022-11-27T19:59:38;98356.56;;;4.71;88.26
43155;BME280;34212;51.018;13.586;2022-11-27T20:04:42;98348.16;;;4.66;88.45
43155;BME280;34212;51.018;13.586;2022-11-27T20:09:44;98345.94;;;4.61;88.19
43155;BME280;34212;51.018;13.586;2022-11-27T20:14:45;98347.03;;;4.59;88.75
43155;BME280;34212;51.018;13.586;2022-11-27T20:19:47;98340.91;;;4.58;87.95
43155;BME280;34212;51.018;13.586;2022-11-27T20:24:49;98329.50;;;4.58;88.35
43155;BME280;34212;51.018;13.586;2022-11-27T20:30:11;98323.63;;;4.54;88.57
43155;BME280;34212;51.018;13.586;2022-11-27T20:35:13;98319.47;;;4.52;87.65
43155;BME280;34212;51.018;13.586;2022-11-27T20:40:15;98326.50;;;4.51;88.13
43155;BME280;34212;51.018;13.586;2022-11-27T20:45:17;98330.28;;;4.49;88.17
43155;BME280;34212;51.018;13.586;2022-11-27T20:50:22;98324.59;;;4.53;88.16
43155;BME280;34212;51.018;13.586;2022-11-27T20:55:23;98318.34;;;4.54;88.68
43155;BME280;34212;51.018;13.586;2022-11-27T21:00:25;98306.00;;;4.55;87.97
43155;BME280;34212;51.018;13.586;2022-11-27T21:05:27;98307.78;;;4.54;88.13
43155;BME280;34212;51.018;13.586;2022-11-27T21:10:28;98296.25;;;4.55;88.05
43155;BME280;34212;51.018;13.586;2022-11-27T21:15:30;98297.72;;;4.48;87.94
43155;BME280;34212;51.018;13.586;2022-11-27T21:20:31;98301.13;;;4.39;88.01
43155;BME280;34212;51.018;13.586;2022-11-27T21:25:33;98293.88;;;4.31;88.16
43155;BME280;34212;51.018;13.586;2022-11-27T21:30:34;98284.78;;;4.24;87.79
43155;BME280;34212;51.018;13.586;2022-11-27T21:35:36;98283.25;;;4.22;88.01
43155;BME280;34212;51.018;13.586;2022-11-27T21:40:41;98263.34;;;4.18;87.71
43155;BME280;34212;51.018;13.586;2022-11-27T21:45:42;98261.53;;;4.18;88.08
43155;BME280;34212;51.018;13.586;2022-11-27T21:50:44;98261.16;;;4.23;88.83
43155;BME280;34212;51.018;13.586;2022-11-27T21:55:45;98241.72;;;4.24;88.40
43155;BME280;34212;51.018;13.586;2022-11-27T22:00:50;98236.16;;;4.27;88.42
43155;BME280;34212;51.018;13.586;2022-11-27T22:05:58;98231.59;;;4.29;88.33
43155;BME280;34212;51.018;13.586;2022-11-27T22:11:06;98235.88;;;4.30;88.35
43155;BME280;34212;51.018;13.586;2022-11-27T22:16:13;98225.22;;;4.31;88.22
43155;BME280;34212;51.018;13.586;2022-11-27T22:21:16;98211.19;;;4.31;88.64
43155;BME280;34212;51.018;13.586;2022-11-27T22:26:19;98211.44;;;4.28;89.37
43155;BME280;34212;51.018;13.586;2022-11-27T22:31:28;98205.91;;;4.31;88.74
43155;BME280;34212;51.018;13.586;2022-11-27T22:36:34;98195.34;;;4.31;88.85
43155;BME280;34212;51.018;13.586;2022-11-27T22:41:38;98193.78;;;4.28;88.67
43155;BME280;34212;51.018;13.586;2022-11-27T22:46:42;98193.06;;;4.26;88.96
43155;BME280;34212;51.018;13.586;2022-11-27T22:51:44;98181.69;;;4.26;89.13
43155;BME280;34212;51.018;13.586;2022-11-27T22:56:47;98186.97;;;4.26;88.74
43155;BME280;34212;51.018;13.586;2022-11-27T23:01:49;98190.59;;;4.25;88.32
43155;BME280;34212;51.018;13.586;2022-11-27T23:06:50;98180.03;;;4.25;88.71
43155;BME280;34212;51.018;13.586;2022-11-27T23:11:52;98175.13;;;4.20;88.48
43155;BME280;34212;51.018;13.586;2022-11-27T23:16:54;98166.09;;;4.23;89.23
43155;BME280;34212;51.018;13.586;2022-11-27T23:21:56;98165.84;;;4.26;88.91
43155;BME280;34212;51.018;13.586;2022-11-27T23:26:57;98157.66;;;4.29;89.00
43155;BME280;34212;51.018;13.586;2022-11-27T23:31:59;98159.78;;;4.35;88.75
43155;BME280;34212;51.018;13.586;2022-11-27T23:37:01;98161.31;;;4.37;88.68
43155;BME280;34212;51.018;13.586;2022-11-27T23:42:03;98151.84;;;4.35;88.79
43155;BME280;34212;51.018;13.586;2022-11-27T23:47:04;98149.34;;;4.33;88.51
43155;BME280;34212;51.018;13.586;2022-11-27T23:52:06;98139.38;;;4.37;89.39
43155;BME280;34212;51.018;13.586;2022-11-27T23:57:12;98139.94;;;4.40;89.07
